Time;durP1;ratioP1;P1;durP2;ratioP2;P2;SDS_P1;SDS_P2;PMS_P1;PMS_P2;Temp;Humidity;BMP_temperature;BMP_pressure;BME280_temperature;BME280_humidity;BME280_pressure;Samples;Min_cycle;Max_cycle;Signal;HPM_P1;HPM_P2
2021/11/19 07:00:37;;;;;;;24.92;5.15;;;8.60;99.90;;;;;;6057545;23;20466;31
2021/11/19 07:03:05;;;;;;;18.40;4.22;;;8.60;99.90;;;;;;6004511;23;20028;-79
2021/11/19 07:05:33;;;;;;;27.00;4.85;;;8.60;99.90;;;;;;5982463;23;20023;-81
2021/11/19 07:08:04;;;;;;;16.98;4.75;;;8.60;99.90;;;;;;6007684;23;20554;-81
2021/11/19 07:10:32;;;;;;;27.30;4.82;;;8.70;99.90;;;;;;6005240;23;20024;-81
2021/11/19 07:12:59;;;;;;;12.82;3.83;;;8.70;99.90;;;;;;6006943;23;20020;-78
2021/11/19 07:15:27;;;;;;;21.75;4.50;;;8.70;99.90;;;;;;6006140;23;20023;-80
2021/11/19 07:17:54;;;;;;;18.77;4.63;;;8.70;99.90;;;;;;6005867;23;20020;-82
2021/11/19 07:20:24;;;;;;;16.45;4.32;;;8.80;99.90;;;;;;6005466;23;20091;-81
2021/11/19 07:22:54;;;;;;;14.60;4.53;;;8.80;99.90;;;;;;6006877;23;20079;-81
2021/11/19 07:25:21;;;;;;;16.63;4.43;;;8.80;99.90;;;;;;6006088;23;20031;-81
2021/11/19 07:27:53;;;;;;;13.93;4.18;;;8.80;99.90;;;;;;6007135;23;20076;-81
2021/11/19 07:30:23;;;;;;;23.77;4.55;;;8.80;99.90;;;;;;6005816;23;20031;-81
2021/11/19 07:32:53;;;;;;;19.45;4.20;;;8.90;99.90;;;;;;6005699;23;20106;-81
2021/11/19 07:35:21;;;;;;;23.67;4.57;;;8.90;99.90;;;;;;6004351;23;20366;-81
2021/11/19 07:37:49;;;;;;;21.00;4.32;;;8.90;99.90;;;;;;6005540;23;20020;-81
2021/11/19 07:40:20;;;;;;;23.85;4.70;;;8.90;99.90;;;;;;6005289;23;20080;-81
2021/11/19 07:42:47;;;;;;;16.00;4.47;;;8.90;99.90;;;;;;6005652;23;20032;-81
2021/11/19 07:45:15;;;;;;;23.05;5.90;;;9.00;99.90;;;;;;6004723;23;20080;-82
2021/11/19 07:47:42;;;;;;;28.88;5.55;;;9.00;99.90;;;;;;6006168;23;20083;-81
2021/11/19 07:50:12;;;;;;;15.32;4.78;;;9.00;99.90;;;;;;6004850;23;20020;-81
2021/11/19 07:52:39;;;;;;;17.05;4.50;;;9.00;99.90;;;;;;6005523;23;20550;-81
2021/11/19 07:55:08;;;;;;;19.27;4.05;;;9.00;99.90;;;;;;6004856;23;20542;-80
2021/11/19 07:57:35;;;;;;;17.15;4.30;;;9.10;99.90;;;;;;6005665;23;20020;-81
2021/11/19 08:00:11;;;;;;;16.30;3.95;;;9.10;99.90;;;;;;6004743;23;20032;-81
2021/11/19 08:02:38;;;;;;;19.88;5.15;;;9.10;99.90;;;;;;6033594;23;20054;-81
2021/11/19 08:05:06;;;;;;;26.98;4.72;;;9.10;99.90;;;;;;6034911;23;20075;-80
2021/11/19 08:07:34;;;;;;;19.23;4.72;;;9.20;99.90;;;;;;6035412;23;20027;-81
2021/11/19 08:10:01;;;;;;;20.40;4.67;;;9.20;99.90;;;;;;6035454;23;20558;-82
2021/11/19 08:12:28;;;;;;;19.95;4.60;;;9.20;99.90;;;;;;6035415;23;20034;-82
2021/11/19 08:14:55;;;;;;;21.67;4.35;;;9.20;99.90;;;;;;6035438;23;20020;-81
2021/11/19 08:17:29;;;;;;;23.88;5.32;;;9.30;99.90;;;;;;6034766;23;20340;-81
2021/11/19 08:19:58;;;;;;;18.20;4.55;;;9.30;99.90;;;;;;6035732;23;20023;-81
2021/11/19 08:22:27;;;;;;;19.23;4.47;;;9.30;99.90;;;;;;6009935;23;20019;-81
2021/11/19 08:24:54;;;;;;;28.67;4.47;;;9.40;99.90;;;;;;6035662;23;20339;-81
2021/11/19 08:27:25;;;;;;;24.27;5.30;;;9.40;99.90;;;;;;6034942;23;20031;-82
2021/11/19 08:29:54;;;;;;;20.38;5.20;;;9.40;99.90;;;;;;6035477;23;20023;-82
2021/11/19 08:32:24;;;;;;;24.77;4.07;;;9.50;99.90;;;;;;6034782;23;20035;-81
2021/11/19 08:34:52;;;;;;;17.10;4.82;;;9.50;99.90;;;;;;6035355;23;20024;-81
2021/11/19 08:37:21;;;;;;;18.60;4.20;;;9.50;99.90;;;;;;6035015;23;20035;-82
2021/11/19 08:39:49;;;;;;;18.75;4.75;;;9.60;99.90;;;;;;6010513;23;20023;-82
2021/11/19 08:42:16;;;;;;;14.05;3.95;;;9.60;99.90;;;;;;6034573;23;20494;-82
2021/11/19 08:44:44;;;;;;;19.45;4.30;;;9.60;99.90;;;;;;6034910;23;20044;-82
2021/11/19 08:47:31;;;;;;;14.48;3.95;;;9.70;99.90;;;;;;6034569;23;20016;-82
2021/11/19 08:50:01;;;;;;;21.77;5.07;;;9.70;99.90;;;;;;6034000;23;20438;-81
2021/11/19 08:52:28;;;;;;;14.82;3.85;;;9.80;99.90;;;;;;6034473;23;20031;-81
2021/11/19 08:54:56;;;;;;;17.50;4.85;;;9.80;99.90;;;;;;6035802;23;20023;-82
2021/11/19 08:57:24;;;;;;;13.50;4.20;;;9.90;99.90;;;;;;6034417;23;20023;-81
2021/11/19 08:59:52;;;;;;;;;;;9.90;99.90;;;;;;6035512;23;20023;-81
2021/11/19 09:02:23;;;;;;;17.45;3.58;;;10.00;99.90;;;;;;6034558;23;19922;-81
2021/11/19 09:04:58;;;;;;;17.88;3.75;;;10.00;99.90;;;;;;6035023;23;20023;-81
2021/11/19 09:07:25;;;;;;;19.65;4.18;;;10.00;99.90;;;;;;6034271;23;20099;-81
2021/11/19 09:09:54;;;;;;;19.80;4.20;;;10.10;99.90;;;;;;6035019;23;20024;-81
2021/11/19 09:12:20;;;;;;;14.75;4.20;;;10.20;99.90;;;;;;6009218;23;20034;-81
2021/11/19 09:14:47;;;;;;;20.73;3.88;;;10.20;99.90;;;;;;6035199;23;20542;-81
2021/11/19 09:17:24;;;;;;;15.07;4.40;;;10.30;99.90;;;;;;6034061;23;20028;-81
2021/11/19 09:19:57;;;;;;;12.13;3.50;;;10.30;99.90;;;;;;6034846;23;20488;-81
2021/11/19 09:22:52;;;;;;;23.15;4.50;;;10.30;99.90;;;;;;6033951;23;20023;-81
2021/11/19 09:25:21;;;;;;;17.65;4.13;;;10.40;99.90;;;;;;6033803;23;20029;-82
2021/11/19 09:27:48;;;;;;;15.73;4.20;;;10.40;99.90;;;;;;6034316;23;20023;-81
2021/11/19 09:30:26;;;;;;;11.57;3.50;;;10.40;99.90;;;;;;6034357;23;20027;-81
2021/11/19 09:32:57;;;;;;;16.80;3.95;;;10.50;99.90;;;;;;6009705;23;20015;-80
2021/11/19 09:35:28;;;;;;;17.60;4.60;;;10.50;99.90;;;;;;6033922;23;20052;-79
2021/11/19 09:37:55;;;;;;;13.68;3.90;;;10.60;99.90;;;;;;6034672;23;20023;-80
2021/11/19 09:40:33;;;;;;;17.35;3.90;;;10.60;99.90;;;;;;6033098;23;20066;-81
2021/11/19 09:43:24;;;;;;;12.25;3.20;;;10.60;99.90;;;;;;6034562;23;20102;-80
2021/11/19 09:46:03;;;;;;;11.70;3.60;;;10.70;99.90;;;;;;6034416;23;20023;-81
2021/11/19 09:48:49;;;;;;;15.48;3.60;;;10.80;99.90;;;;;;6034247;23;20072;-81
2021/11/19 09:51:38;;;;;;;16.75;3.50;;;10.80;99.90;;;;;;6033479;23;20031;-81
2021/11/19 09:54:42;;;;;;;15.70;3.40;;;10.90;99.90;;;;;;6033964;23;20071;-79
2021/11/19 09:57:52;;;;;;;14.15;3.85;;;10.90;99.90;;;;;;6008286;23;20027;-80
2021/11/19 10:00:56;;;;;;;18.38;3.72;;;11.00;99.90;;;;;;6032128;23;20027;-80
2021/11/19 10:03:45;;;;;;;17.65;4.72;;;11.10;99.90;;;;;;6033152;23;20351;-81
2021/11/19 10:06:31;;;;;;;8.25;3.00;;;11.10;99.90;;;;;;6025106;23;20522;-80
2021/11/19 10:09:14;;;;;;;17.20;3.78;;;11.20;99.90;;;;;;6034542;23;20023;-80
2021/11/19 10:12:09;;;;;;;12.80;3.97;;;11.30;99.90;;;;;;6033850;23;20015;-81
2021/11/19 10:15:06;;;;;;;11.73;3.35;;;11.40;99.90;;;;;;6031098;23;20474;-80
2021/11/19 10:18:10;;;;;;;11.32;3.50;;;11.50;99.90;;;;;;6034605;23;20533;-80
2021/11/19 10:20:47;;;;;;;9.05;2.55;;;11.60;99.90;;;;;;6034485;23;20088;-80
2021/11/19 10:23:26;;;;;;;16.63;3.30;;;11.60;99.90;;;;;;6008132;23;20027;-80
2021/11/19 10:26:03;;;;;;;9.65;2.85;;;11.70;99.90;;;;;;6034146;23;20023;-80
2021/11/19 10:28:59;;;;;;;18.98;3.50;;;11.80;99.90;;;;;;6034149;23;20075;-81
2021/11/19 10:31:27;;;;;;;8.48;3.17;;;11.80;99.90;;;;;;6030498;23;20023;-80
2021/11/19 10:33:57;;;;;;;11.98;2.90;;;11.80;99.90;;;;;;6033888;23;20026;-80
2021/11/19 10:36:32;;;;;;;12.63;4.05;;;11.90;99.90;;;;;;6033993;23;20031;-81
2021/11/19 10:39:23;;;;;;;9.32;2.85;;;11.90;99.90;;;;;;6033869;23;20086;-79
2021/11/19 10:42:02;;;;;;;13.98;4.15;;;11.90;99.90;;;;;;6033473;23;20019;-80
2021/11/19 10:44:51;;;;;;;9.52;3.33;;;11.90;99.90;;;;;;6033668;23;20127;-80
2021/11/19 10:47:21;;;;;;;;;;;12.00;99.90;;;;;;6033842;23;20030;-79
2021/11/19 10:50:25;;;;;;;12.68;3.45;;;12.00;99.90;;;;;;6034109;23;20420;-80
2021/11/19 10:53:34;;;;;;;10.52;2.88;;;12.10;99.90;;;;;;6033693;23;20015;-80
2021/11/19 10:56:22;;;;;;;12.25;3.03;;;12.10;99.90;;;;;;6033653;23;20019;-79
2021/11/19 10:59:07;;;;;;;9.43;2.80;;;12.20;99.90;;;;;;6008307;23;20023;-80
2021/11/19 11:02:15;;;;;;;12.80;3.30;;;12.20;99.90;;;;;;6033333;23;20030;-81
2021/11/19 11:04:53;;;;;;;6.90;2.83;;;12.30;99.90;;;;;;6033664;23;20071;-80
2021/11/19 11:07:31;;;;;;;13.77;3.08;;;12.30;99.90;;;;;;6033180;23;20083;-80
2021/11/19 11:10:12;;;;;;;13.43;2.72;;;12.40;99.90;;;;;;6034116;23;20024;-81
2021/11/19 11:12:45;;;;;;;8.57;2.90;;;12.50;99.90;;;;;;6034255;23;20023;-80
2021/11/19 11:15:24;;;;;;;10.18;3.05;;;12.60;99.90;;;;;;6032980;23;20023;-79
2021/11/19 11:18:13;;;;;;;15.20;2.80;;;12.70;99.90;;;;;;6033784;23;20023;-80
2021/11/19 11:20:53;;;;;;;14.20;3.05;;;12.80;99.90;;;;;;6033585;23;20027;-80
2021/11/19 11:23:43;;;;;;;11.27;2.70;;;12.90;99.90;;;;;;6007495;23;20102;-80
2021/11/19 11:26:23;;;;;;;12.35;3.03;;;13.00;99.90;;;;;;6033328;23;20402;-79
2021/11/19 11:28:54;;;;;;;10.18;2.38;;;13.00;99.90;;;;;;6034306;23;20020;-81
2021/11/19 11:31:50;;;;;;;12.30;2.67;;;13.00;99.90;;;;;;6032678;23;20019;-80
2021/11/19 11:34:43;;;;;;;7.72;2.08;;;13.00;99.90;;;;;;6033253;23;20027;-80
2021/11/19 11:37:24;;;;;;;7.38;2.75;;;12.90;99.90;;;;;;6007804;23;20023;-80
2021/11/19 11:40:11;;;;;;;9.27;2.83;;;12.90;99.90;;;;;;6008666;23;20494;-81
2021/11/19 11:42:46;;;;;;;7.47;2.53;;;12.80;99.90;;;;;;6033428;23;20083;-81
2021/11/19 11:45:20;;;;;;;11.65;3.17;;;12.70;99.90;;;;;;6033343;23;20029;-81
2021/11/19 11:47:58;;;;;;;10.73;2.65;;;12.60;99.90;;;;;;6033978;23;20019;-80
2021/11/19 11:50:44;;;;;;;11.68;2.72;;;12.60;99.90;;;;;;6008214;23;20552;-80
2021/11/19 11:53:15;;;;;;;9.57;2.30;;;12.50;99.90;;;;;;6033105;23;20099;-81
2021/11/19 11:56:04;;;;;;;11.60;2.22;;;12.50;99.90;;;;;;6009252;23;20027;-81
2021/11/19 11:58:51;;;;;;;9.23;2.50;;;12.50;99.90;;;;;;6034247;23;20023;-80
2021/11/19 12:01:39;;;;;;;14.07;2.78;;;12.50;99.90;;;;;;6032678;23;20055;-81
2021/11/19 12:04:23;;;;;;;9.85;2.80;;;12.40;99.90;;;;;;6033044;23;20079;-81
2021/11/19 12:07:11;;;;;;;13.18;3.65;;;12.40;99.90;;;;;;6033245;23;20027;-81
2021/11/19 12:09:50;;;;;;;10.27;2.72;;;12.40;99.90;;;;;;6033142;23;20482;-79
2021/11/19 12:12:36;;;;;;;14.18;3.13;;;12.50;99.90;;;;;;6032989;23;20063;-80
2021/11/19 12:15:03;;;;;;;13.82;3.08;;;12.60;99.90;;;;;;6033832;23;20027;-80
2021/11/19 12:17:39;;;;;;;6.10;2.33;;;12.70;99.90;;;;;;6033069;23;20050;-81
2021/11/19 12:20:27;;;;;;;13.25;4.07;;;12.90;99.90;;;;;;6032884;23;20425;-80
2021/11/19 12:23:17;;;;;;;8.98;2.80;;;13.00;99.90;;;;;;6034006;23;20075;-81
2021/11/19 12:25:50;;;;;;;11.48;3.13;;;13.00;99.90;;;;;;6033785;23;20024;-81
2021/11/19 12:28:45;;;;;;;10.68;3.47;;;13.10;99.90;;;;;;6033424;23;20051;-81
2021/11/19 12:31:41;;;;;;;10.75;3.17;;;13.20;99.90;;;;;;6028161;23;20023;-81
2021/11/19 12:34:32;;;;;;;8.05;3.17;;;13.10;99.90;;;;;;6033101;23;20027;-80
2021/11/19 12:37:19;;;;;;;8.95;2.75;;;13.20;99.90;;;;;;6033735;23;20026;-81
2021/11/19 12:39:48;;;;;;;10.20;2.80;;;13.20;99.90;;;;;;6033661;23;20079;-80
2021/11/19 12:42:48;;;;;;;12.10;3.33;;;13.20;99.90;;;;;;6033119;23;20027;-79
2021/11/19 12:45:23;;;;;;;8.57;2.65;;;13.20;99.90;;;;;;6032661;23;20056;-79
2021/11/19 12:47:53;;;;;;;9.77;3.10;;;13.10;99.90;;;;;;6033713;23;20026;-81
2021/11/19 12:50:23;;;;;;;9.75;2.83;;;13.10;99.90;;;;;;6033090;23;20557;-80
2021/11/19 12:53:14;;;;;;;8.15;2.20;;;13.10;99.90;;;;;;6035683;23;20075;-81
2021/11/19 12:55:57;;;;;;;8.43;2.60;;;13.10;99.90;;;;;;6035262;23;20578;-80
2021/11/19 12:58:30;;;;;;;11.85;2.88;;;13.10;99.90;;;;;;6034623;23;20083;-80
2021/11/19 13:01:22;;;;;;;11.55;3.30;;;13.10;99.90;;;;;;6034986;23;20601;-81
2021/11/19 13:03:58;;;;;;;11.40;2.58;;;13.10;99.90;;;;;;6034580;23;20076;-81
2021/11/19 13:06:26;;;;;;;6.10;1.85;;;13.10;99.90;;;;;;6034516;23;20032;-81
2021/11/19 13:09:13;;;;;;;12.50;3.35;;;13.10;99.90;;;;;;6034811;23;20023;-81
2021/11/19 13:12:08;;;;;;;11.43;2.65;;;13.10;99.90;;;;;;6035160;23;20078;-80
2021/11/19 13:14:37;;;;;;;10.00;2.53;;;13.10;99.90;;;;;;6035109;23;20015;-81
2021/11/19 13:17:15;;;;;;;8.18;2.40;;;13.10;99.90;;;;;;6010165;23;20373;-81
2021/11/19 13:19:41;;;;;;;9.00;2.10;;;13.10;99.90;;;;;;6035354;23;20023;-81
2021/11/19 13:22:11;;;;;;;8.80;2.10;;;13.10;99.90;;;;;;6034270;23;20315;-82
2021/11/19 13:24:39;;;;;;;9.85;2.33;;;13.00;99.90;;;;;;6034663;23;20024;-81
2021/11/19 13:27:09;;;;;;;8.57;2.60;;;13.00;99.90;;;;;;6034705;23;20031;-81
2021/11/19 13:29:36;;;;;;;8.85;2.13;;;13.00;99.90;;;;;;6034981;23;20019;-81
2021/11/19 13:32:32;;;;;;;5.75;2.00;;;13.00;99.90;;;;;;6034965;23;20458;-81
2021/11/19 13:35:23;;;;;;;9.60;2.72;;;13.00;99.90;;;;;;6034673;23;20086;-81
2021/11/19 13:38:04;;;;;;;8.98;2.15;;;13.00;99.90;;;;;;6034298;23;20083;-81
2021/11/19 13:40:34;;;;;;;10.45;2.47;;;13.00;99.90;;;;;;6034665;23;20079;-81
2021/11/19 13:43:12;;;;;;;6.32;2.25;;;12.90;99.90;;;;;;6034807;23;20027;-81
2021/11/19 13:45:42;;;;;;;7.97;2.10;;;13.00;99.90;;;;;;6034484;23;20075;-80
2021/11/19 13:48:37;;;;;;;5.85;1.80;;;13.00;99.90;;;;;;6034275;23;20158;-81
2021/11/19 13:51:40;;;;;;;6.55;1.88;;;13.00;99.90;;;;;;6034454;23;20027;-81
2021/11/19 13:54:20;;;;;;;8.85;2.63;;;13.00;99.90;;;;;;5892064;24;20477;-80
2021/11/19 13:56:52;;;;;;;8.25;2.15;;;13.00;99.90;;;;;;5892411;24;20033;-81
2021/11/19 13:59:28;;;;;;;5.68;2.40;;;13.00;99.90;;;;;;5891993;24;20110;-80
2021/11/19 14:02:08;;;;;;;8.90;2.00;;;13.00;99.90;;;;;;5891938;24;20022;-81
2021/11/19 14:04:45;;;;;;;6.90;2.22;;;13.00;99.90;;;;;;5892373;24;20467;-81
2021/11/19 14:07:23;;;;;;;8.77;2.17;;;13.00;99.90;;;;;;5891518;24;20071;-80
2021/11/19 14:09:55;;;;;;;7.85;2.20;;;13.00;99.90;;;;;;5892251;24;20025;-81
2021/11/19 14:12:27;;;;;;;12.73;2.55;;;13.00;99.90;;;;;;5891998;24;20083;-80
2021/11/19 14:15:19;;;;;;;9.07;2.10;;;13.00;99.90;;;;;;5870105;24;20090;-80
2021/11/19 14:17:47;;;;;;;10.50;2.47;;;13.00;99.90;;;;;;5892002;24;20083;-80
2021/11/19 14:23:30;;;;;;;10.70;2.40;;;12.90;99.90;;;;;;5891547;24;20174;-80
2021/11/19 14:26:10;;;;;;;10.93;2.55;;;12.90;99.90;;;;;;5870403;24;20078;-80
2021/11/19 14:28:57;;;;;;;8.35;2.75;;;12.80;99.90;;;;;;6006528;23;20485;-80
2021/11/19 14:31:25;;;;;;;8.63;2.65;;;12.80;99.90;;;;;;6033488;23;20102;-80
2021/11/19 14:34:09;;;;;;;8.48;2.42;;;12.80;99.90;;;;;;6034241;23;20023;-81
2021/11/19 14:36:46;;;;;;;5.82;2.70;;;12.80;99.90;;;;;;6034087;23;20023;-80
2021/11/19 14:39:46;;;;;;;9.20;2.53;;;12.80;99.90;;;;;;6033274;23;20028;-81
2021/11/19 14:42:18;;;;;;;8.35;3.88;;;12.70;99.90;;;;;;6004010;23;20027;-80
2021/11/19 14:45:00;;;;;;;8.77;2.83;;;12.70;99.90;;;;;;6034308;23;20099;-80
2021/11/19 14:47:54;;;;;;;7.88;2.80;;;12.70;99.90;;;;;;6034071;23;20343;-80
2021/11/19 14:53:19;;;;;;;8.35;2.97;;;12.70;99.90;;;;;;6033464;23;20035;-80
2021/11/19 14:55:50;;;;;;;11.07;2.95;;;12.70;99.90;;;;;;6009802;23;20023;-80
2021/11/19 14:58:17;;;;;;;5.78;2.40;;;12.60;99.90;;;;;;6033982;23;20541;-81
2021/11/19 15:00:47;;;;;;;8.25;2.40;;;12.60;99.90;;;;;;6033681;23;20023;-81
2021/11/19 15:03:20;;;;;;;6.55;2.38;;;12.60;99.90;;;;;;6033172;23;20034;-81
2021/11/19 15:05:56;;;;;;;9.02;2.67;;;12.50;99.90;;;;;;6034335;23;20023;-81
2021/11/19 15:08:35;;;;;;;10.65;2.70;;;12.50;99.90;;;;;;6033433;23;20480;-80
2021/11/19 15:11:16;;;;;;;6.47;2.70;;;12.40;99.90;;;;;;6033842;23;20023;-80
2021/11/19 15:14:18;;;;;;;14.43;3.72;;;12.40;99.90;;;;;;6034081;23;20027;-81
2021/11/19 15:16:49;;;;;;;6.78;2.55;;;12.30;99.90;;;;;;6008810;23;20023;-81
2021/11/19 15:19:52;;;;;;;12.43;3.70;;;12.20;99.90;;;;;;6033415;23;20023;-81
2021/11/19 15:22:22;;;;;;;6.78;2.63;;;12.20;99.90;;;;;;6033472;23;20031;-80
2021/11/19 15:24:57;;;;;;;8.25;3.20;;;12.20;99.90;;;;;;6033701;23;20074;-81
2021/11/19 15:27:27;;;;;;;16.75;3.88;;;12.10;99.90;;;;;;6032975;23;20031;-80
2021/11/19 15:29:57;;;;;;;7.05;2.58;;;12.10;99.90;;;;;;6034009;23;20019;-80
2021/11/19 15:32:53;;;;;;;6.53;2.53;;;12.10;99.90;;;;;;6033700;23;20663;-80
2021/11/19 15:35:32;;;;;;;10.45;2.80;;;12.10;99.90;;;;;;6033358;23;20075;-80
2021/11/19 15:38:31;;;;;;;9.95;2.67;;;12.00;99.90;;;;;;6009029;23;20020;-81
2021/11/19 15:40:59;;;;;;;15.93;3.78;;;12.00;99.90;;;;;;6033646;23;20019;-80
2021/11/19 15:43:27;;;;;;;9.10;2.80;;;11.90;99.90;;;;;;6033511;23;20019;-80
2021/11/19 15:45:57;;;;;;;11.93;3.35;;;11.90;99.90;;;;;;6008666;23;20023;-80
2021/11/19 15:48:28;;;;;;;8.10;2.63;;;11.90;99.90;;;;;;6033485;23;20091;-80
2021/11/19 15:50:56;;;;;;;10.45;3.03;;;11.80;99.90;;;;;;6009084;23;20023;-79
2021/11/19 15:53:35;;;;;;;13.55;3.70;;;11.80;99.90;;;;;;6033260;23;20073;-80
2021/11/19 15:56:42;;;;;;;8.98;3.08;;;11.70;99.90;;;;;;6034097;23;20054;-80
2021/11/19 15:59:34;;;;;;;20.52;4.38;;;11.70;99.90;;;;;;6013042;23;20023;-80
2021/11/19 16:02:37;;;;;;;15.15;3.50;;;11.60;99.90;;;;;;6033562;23;20526;-80
2021/11/19 16:05:32;;;;;;;11.23;3.67;;;11.60;99.90;;;;;;6033329;23;20071;-79
2021/11/19 16:08:17;;;;;;;16.75;4.85;;;11.50;99.90;;;;;;6033206;23;20526;-80
2021/11/19 16:11:05;;;;;;;6.97;2.88;;;11.50;99.90;;;;;;6008547;23;20246;-80
2021/11/19 16:13:42;;;;;;;13.20;3.35;;;11.40;99.90;;;;;;6032701;23;20407;-80
2021/11/19 16:16:14;;;;;;;12.93;4.25;;;11.40;99.90;;;;;;6033094;23;20071;-80
2021/11/19 16:18:44;;;;;;;11.13;2.92;;;11.30;99.90;;;;;;6033702;23;20404;-80
2021/11/19 16:21:15;;;;;;;19.58;4.60;;;11.30;99.90;;;;;;6032437;23;20051;-80
2021/11/19 16:23:44;;;;;;;11.68;2.80;;;11.20;99.90;;;;;;6034014;23;20513;-79
2021/11/19 16:26:14;;;;;;;10.70;3.33;;;11.20;99.90;;;;;;6035003;23;20094;-80
2021/11/19 16:28:41;;;;;;;17.27;4.20;;;11.10;99.90;;;;;;6016349;23;20019;-80
2021/11/19 16:31:15;;;;;;;18.48;4.50;;;11.10;99.90;;;;;;6034691;23;20027;-79
2021/11/19 16:33:42;;;;;;;13.00;4.72;;;11.10;99.90;;;;;;6035303;23;20075;-79
2021/11/19 16:36:09;;;;;;;13.63;3.78;;;11.00;99.90;;;;;;6034582;23;20023;-80
2021/11/19 16:38:36;;;;;;;15.32;4.82;;;10.90;99.90;;;;;;6035199;23;20407;-81
2021/11/19 16:41:05;;;;;;;9.68;3.72;;;10.90;99.90;;;;;;6034978;23;20031;-80
2021/11/19 16:43:35;;;;;;;10.82;4.00;;;10.80;99.90;;;;;;6031001;23;20395;-80
2021/11/19 16:46:03;;;;;;;11.32;4.22;;;10.80;99.90;;;;;;6027941;23;20490;-80
2021/11/19 16:48:34;;;;;;;10.38;4.20;;;10.70;99.90;;;;;;6029099;23;20043;-80
2021/11/19 16:51:11;;;;;;;11.30;4.18;;;10.60;99.90;;;;;;6029970;23;20352;-80
2021/11/19 16:53:39;;;;;;;9.13;3.50;;;10.60;99.90;;;;;;6029208;23;20058;-80
2021/11/19 16:56:07;;;;;;;6.70;3.30;;;10.50;99.90;;;;;;6029035;23;20023;-80
2021/11/19 16:58:35;;;;;;;6.70;3.33;;;10.50;99.90;;;;;;6029975;23;20051;-80
2021/11/19 17:01:07;;;;;;;11.70;4.25;;;10.40;99.90;;;;;;6029496;23;20083;-81
2021/11/19 17:03:34;;;;;;;13.07;6.65;;;10.30;99.90;;;;;;6029429;23;20023;-81
2021/11/19 17:06:19;;;;;;;32.10;15.50;;;10.30;99.90;;;;;;6028945;23;20494;-80
2021/11/19 17:08:48;;;;;;;18.42;8.13;;;10.20;99.90;;;;;;6030086;23;20071;-81
2021/11/19 17:11:15;;;;;;;10.60;4.70;;;10.20;99.90;;;;;;6028847;23;20412;-81
2021/11/19 17:13:43;;;;;;;10.05;5.55;;;10.20;99.90;;;;;;6005003;23;20027;-80
2021/11/19 17:16:12;;;;;;;12.93;6.45;;;10.10;99.90;;;;;;6003845;23;20336;-81
2021/11/19 17:18:39;;;;;;;14.63;5.40;;;10.10;99.90;;;;;;6029682;23;20061;-80
2021/11/19 17:21:09;;;;;;;10.75;5.18;;;10.00;99.90;;;;;;6028417;23;20071;-79
2021/11/19 17:23:39;;;;;;;15.98;5.72;;;10.00;99.90;;;;;;6029988;23;20027;-80
2021/11/19 17:26:07;;;;;;;13.02;5.50;;;10.00;99.90;;;;;;6004937;23;20487;-80
2021/11/19 17:28:41;;;;;;;15.35;5.93;;;9.90;99.90;;;;;;6030035;23;20027;-79
2021/11/19 17:31:08;;;;;;;9.45;4.95;;;9.90;99.90;;;;;;6028530;23;20023;-79
2021/11/19 17:33:38;;;;;;;12.05;5.28;;;9.90;99.90;;;;;;6028355;23;20030;-80
2021/11/19 17:36:06;;;;;;;16.08;5.63;;;9.80;99.90;;;;;;6029139;23;20031;-79
2021/11/19 17:38:33;;;;;;;11.05;5.88;;;9.80;99.90;;;;;;6029765;23;20114;-79
2021/11/19 17:41:00;;;;;;;13.52;5.75;;;9.70;99.90;;;;;;6027780;23;20075;-79
2021/11/19 17:43:27;;;;;;;14.95;5.97;;;9.70;99.90;;;;;;6026685;23;20015;-78
2021/11/19 17:46:08;;;;;;;12.88;5.95;;;9.60;99.90;;;;;;6027840;23;20050;-79
2021/11/19 17:48:37;;;;;;;12.18;5.75;;;9.60;99.90;;;;;;6028288;23;20542;-79
2021/11/19 17:51:10;;;;;;;15.77;6.20;;;9.60;99.90;;;;;;6027107;23;20034;-78
2021/11/19 17:53:37;;;;;;;15.18;6.90;;;9.60;99.90;;;;;;6027790;23;20482;-79
2021/11/19 17:56:06;;;;;;;13.80;6.22;;;9.50;99.90;;;;;;6027630;23;20027;-77
2021/11/19 17:58:34;;;;;;;;;;;9.50;99.90;;;;;;6028124;23;20082;-80
2021/11/19 18:01:06;;;;;;;13.63;6.43;;;9.50;99.90;;;;;;6027763;23;19930;-80
2021/11/19 18:03:33;;;;;;;12.13;6.85;;;9.40;99.90;;;;;;6026426;23;20023;-79
2021/11/19 18:06:01;;;;;;;12.70;6.53;;;9.40;99.90;;;;;;6027298;23;20146;-80
2021/11/19 18:08:31;;;;;;;14.32;7.57;;;9.40;99.90;;;;;;6027406;23;20738;-80
2021/11/19 18:11:00;;;;;;;16.40;7.72;;;9.30;99.90;;;;;;6027226;23;20094;-79
2021/11/19 18:13:28;;;;;;;19.48;9.35;;;9.30;99.90;;;;;;6027903;23;20023;-80
2021/11/19 18:15:56;;;;;;;15.38;9.15;;;9.30;99.90;;;;;;6028803;23;20038;-79
2021/11/19 18:18:24;;;;;;;16.02;7.95;;;9.30;99.90;;;;;;6028195;23;20086;-79
2021/11/19 18:21:01;;;;;;;20.77;8.88;;;9.30;99.90;;;;;;6001848;23;20467;-80
2021/11/19 18:23:29;;;;;;;14.55;7.93;;;9.20;99.90;;;;;;6025565;23;20181;-79
2021/11/19 18:25:58;;;;;;;18.95;7.97;;;9.20;99.90;;;;;;6028817;23;20083;-79
2021/11/19 18:28:27;;;;;;;17.60;8.48;;;9.20;99.90;;;;;;6026193;23;20419;-79
2021/11/19 18:30:58;;;;;;;14.95;8.40;;;9.10;99.90;;;;;;6007609;23;20046;-80
2021/11/19 18:33:25;;;;;;;20.38;8.25;;;9.10;99.90;;;;;;6029644;23;20395;-79
2021/11/19 18:35:53;;;;;;;19.30;9.25;;;9.10;99.90;;;;;;6029839;23;20023;-79
2021/11/19 18:38:23;;;;;;;19.83;9.40;;;9.10;99.90;;;;;;6029528;23;20027;-79
2021/11/19 18:40:59;;;;;;;14.20;8.35;;;9.10;99.90;;;;;;6031170;23;20027;-80
2021/11/19 18:43:26;;;;;;;18.17;9.18;;;9.00;99.90;;;;;;6030522;23;20031;-80
2021/11/19 18:45:56;;;;;;;19.30;10.02;;;9.00;99.90;;;;;;6030657;23;20019;-80
2021/11/19 18:48:25;;;;;;;20.30;9.38;;;9.00;99.90;;;;;;6032324;23;20027;-80
2021/11/19 18:50:54;;;;;;;27.95;10.52;;;8.90;99.90;;;;;;6033178;23;20023;-80
2021/11/19 18:53:24;;;;;;;28.17;10.52;;;8.90;99.90;;;;;;6032039;23;20366;-79
2021/11/19 18:55:53;;;;;;;22.90;10.43;;;8.90;99.90;;;;;;6033203;23;20023;-78
2021/11/19 18:58:21;;;;;;;20.90;10.40;;;8.90;99.90;;;;;;6032417;23;20027;-80
2021/11/19 19:01:26;;;;;;;20.70;10.60;;;8.90;99.90;;;;;;6043127;23;20023;-80
2021/11/19 19:03:53;;;;;;;17.30;10.30;;;8.80;99.90;;;;;;6057016;23;20419;-80
2021/11/19 19:06:23;;;;;;;19.48;10.93;;;8.80;99.90;;;;;;6061157;23;20030;-80
2021/11/19 19:08:54;;;;;;;24.92;9.93;;;8.80;99.90;;;;;;6036198;23;20022;-80
2021/11/19 19:11:23;;;;;;;23.73;11.60;;;8.80;99.90;;;;;;6060831;23;20082;-79
2021/11/19 19:13:51;;;;;;;25.80;10.80;;;8.80;99.90;;;;;;6061744;23;20047;-79
2021/11/19 19:16:25;;;;;;;23.35;10.98;;;8.70;99.90;;;;;;6061282;23;20090;-80
2021/11/19 19:18:52;;;;;;;19.35;10.45;;;8.70;99.90;;;;;;6061383;23;20078;-80
2021/11/19 19:21:21;;;;;;;23.77;11.93;;;8.70;99.90;;;;;;6060723;23;20034;-79
2021/11/19 19:23:49;;;;;;;24.20;11.07;;;8.70;99.90;;;;;;6061663;23;20026;-79
2021/11/19 19:26:18;;;;;;;22.92;11.02;;;8.60;99.90;;;;;;6060756;23;20027;-80
2021/11/19 19:28:51;;;;;;;22.17;11.60;;;8.60;99.90;;;;;;6062072;23;20078;-80
2021/11/19 19:31:23;;;;;;;20.63;10.75;;;8.60;99.90;;;;;;6060474;23;20019;-80
2021/11/19 19:33:51;;;;;;;22.25;11.55;;;8.60;99.90;;;;;;6033278;23;20019;-80
2021/11/19 19:36:31;;;;;;;26.45;11.38;;;8.50;99.90;;;;;;6058685;23;20051;-80
2021/11/19 19:39:02;;;;;;;28.45;11.43;;;8.50;99.90;;;;;;6059310;23;20023;-80
2021/11/19 19:41:35;;;;;;;21.98;12.10;;;8.50;99.90;;;;;;6059197;23;20022;-79
2021/11/19 19:44:05;;;;;;;28.98;11.35;;;8.50;99.90;;;;;;6059589;23;20359;-79
2021/11/19 19:46:36;;;;;;;35.05;12.95;;;8.40;99.90;;;;;;6059899;23;20114;-79
2021/11/19 19:49:05;;;;;;;27.20;11.43;;;8.50;99.90;;;;;;6034519;23;20053;-80
2021/11/19 19:51:33;;;;;;;23.05;11.75;;;8.40;99.90;;;;;;6058821;23;20075;-79
2021/11/19 19:54:03;;;;;;;27.00;10.70;;;8.40;99.90;;;;;;6060108;23;20026;-80
2021/11/19 19:56:33;;;;;;;28.00;11.95;;;8.40;99.90;;;;;;6059437;23;20075;-80
2021/11/19 19:59:00;;;;;;;24.30;11.18;;;8.40;99.90;;;;;;6059780;23;20027;-79
2021/11/19 20:01:47;;;;;;;26.67;11.82;;;8.30;99.90;;;;;;6061957;23;20103;-80
2021/11/19 20:04:16;;;;;;;28.63;11.80;;;8.30;99.90;;;;;;6062671;23;20111;-80
2021/11/19 20:06:47;;;;;;;28.08;13.18;;;8.30;99.90;;;;;;6036612;23;20015;-80
2021/11/19 20:09:19;;;;;;;28.38;12.27;;;8.30;99.90;;;;;;6063210;23;20031;-80
2021/11/19 20:11:47;;;;;;;29.27;12.13;;;8.30;99.90;;;;;;6063738;23;20437;-79
2021/11/19 20:14:14;;;;;;;18.58;9.30;;;8.30;99.90;;;;;;6035255;23;20059;-80
2021/11/19 20:16:44;;;;;;;35.28;12.30;;;8.30;99.90;;;;;;6058064;23;20066;-80
2021/11/19 20:19:13;;;;;;;31.10;11.98;;;8.30;99.90;;;;;;6057162;23;20031;-81
2021/11/19 20:21:41;;;;;;;33.30;11.48;;;8.30;99.90;;;;;;6056975;23;20082;-80
2021/11/19 20:24:11;;;;;;;30.85;11.98;;;8.20;99.90;;;;;;6032019;23;20026;-80
2021/11/19 20:26:41;;;;;;;27.10;11.20;;;8.20;99.90;;;;;;6057657;23;20015;-81
2021/11/19 20:29:12;;;;;;;32.35;11.38;;;8.20;99.90;;;;;;6057198;23;20034;-81
2021/11/19 20:31:45;;;;;;;32.55;12.55;;;8.20;99.90;;;;;;6033429;23;20135;-80